createdAt,value
2022-09-05T00:00:54.011Z,2.20
2022-09-05T00:01:54.033Z,2.20
2022-09-05T00:02:54.152Z,2.10
2022-09-05T00:03:54.135Z,2.10
2022-09-05T00:04:53.964Z,2.00
2022-09-05T00:06:02.936Z,2.30
2022-09-05T00:06:53.948Z,2.10
2022-09-05T00:07:58.941Z,1.90
2022-09-05T00:08:53.912Z,1.90
2022-09-05T00:09:53.893Z,1.80
2022-09-05T00:11:40.626Z,1.80
2022-09-05T00:11:53.868Z,2.00
2022-09-05T00:13:07.004Z,1.80
2022-09-05T00:13:53.851Z,2.00
2022-09-05T00:15:16.488Z,1.80
2022-09-05T00:15:53.911Z,1.80
2022-09-05T00:16:53.806Z,1.80
2022-09-05T00:21:31.580Z,2.10
2022-09-05T00:24:50.215Z,2.00
2022-09-05T00:25:30.555Z,2.10
2022-09-05T00:25:48.436Z,1.90
2022-09-05T00:26:50.223Z,1.70
2022-09-05T00:27:48.428Z,1.90
2022-09-05T00:28:48.395Z,1.80
2022-09-05T00:31:03.984Z,2.00
2022-09-05T00:31:56.201Z,2.00
2022-09-05T00:32:01.787Z,2.00
2022-09-05T00:32:48.400Z,2.20
2022-09-05T00:33:48.320Z,1.90
2022-09-05T00:34:48.517Z,1.90
2022-09-05T00:35:48.302Z,2.00
2022-09-05T00:36:48.293Z,2.00
2022-09-05T00:37:48.306Z,1.90
2022-09-05T00:38:48.261Z,1.80
2022-09-05T00:39:57.802Z,1.90
2022-09-05T00:40:48.233Z,2.00
2022-09-05T00:41:48.223Z,1.80
2022-09-05T00:42:48.203Z,2.00
2022-09-05T00:43:48.210Z,2.00
2022-09-05T00:44:48.213Z,1.90
2022-09-05T00:45:48.163Z,2.20
2022-09-05T00:46:48.200Z,2.00
2022-09-05T00:47:48.477Z,1.90
2022-09-05T00:48:48.139Z,2.40
2022-09-05T00:49:48.148Z,2.20
2022-09-05T00:50:48.093Z,1.90
2022-09-05T00:51:48.085Z,1.80
2022-09-05T00:53:06.262Z,2.00
2022-09-05T00:53:48.060Z,2.00
2022-09-05T00:54:48.049Z,1.80
2022-09-05T00:55:48.030Z,2.00
2022-09-05T00:56:48.018Z,2.00
2022-09-05T00:57:48.008Z,1.90
2022-09-05T00:58:47.984Z,2.00
2022-09-05T00:59:58.620Z,1.70
2022-09-05T01:00:47.967Z,1.80
2022-09-05T01:01:48.077Z,1.80
2022-09-05T01:02:51.268Z,2.00
2022-09-05T01:03:47.927Z,1.80
2022-09-05T01:04:47.922Z,1.90
2022-09-05T01:05:47.901Z,2.10
2022-09-05T01:06:47.883Z,1.90
2022-09-05T01:07:47.871Z,1.90
2022-09-05T01:08:47.881Z,2.10
2022-09-05T01:09:47.845Z,2.40
2022-09-05T01:10:47.843Z,1.80
2022-09-05T01:11:47.860Z,2.00
2022-09-05T01:12:52.721Z,1.70
2022-09-05T01:13:47.805Z,2.00
2022-09-05T01:14:47.782Z,2.30
2022-09-05T01:15:47.804Z,2.10
2022-09-05T01:16:47.768Z,1.80
2022-09-05T01:17:48.459Z,2.00
2022-09-05T01:18:47.733Z,1.90
2022-09-05T01:19:47.744Z,1.80
2022-09-05T01:20:47.721Z,1.70
2022-09-05T01:21:48.330Z,2.10
2022-09-05T01:22:47.683Z,1.80
2022-09-05T01:23:47.664Z,1.90
2022-09-05T01:24:47.663Z,1.90
2022-09-05T01:25:52.488Z,1.90
2022-09-05T01:26:47.659Z,2.00
2022-09-05T01:29:13.679Z,2.10
2022-09-05T01:29:22.079Z,1.80
2022-09-05T01:29:47.591Z,2.20
2022-09-05T01:30:47.613Z,2.20
2022-09-05T01:31:47.583Z,1.70
2022-09-05T01:32:47.553Z,2.50
2022-09-05T01:33:47.537Z,2.00
2022-09-05T01:34:47.539Z,2.10
2022-09-05T01:36:03.732Z,1.90
2022-09-05T01:36:47.503Z,2.00
2022-09-05T01:37:47.484Z,1.90
2022-09-05T01:39:26.124Z,2.00
2022-09-05T01:40:16.893Z,1.90
2022-09-05T01:40:53.636Z,2.10
2022-09-05T01:41:47.448Z,2.00
2022-09-05T01:42:47.417Z,1.90
2022-09-05T01:43:47.405Z,2.10
2022-09-05T01:44:47.390Z,1.90
2022-09-05T01:45:47.380Z,1.70
2022-09-05T01:46:47.372Z,1.90
2022-09-05T01:47:47.361Z,2.00
2022-09-05T01:48:47.751Z,1.80
2022-09-05T01:49:47.352Z,1.80
2022-09-05T01:50:47.322Z,1.80
2022-09-05T01:51:47.337Z,1.90
2022-09-05T01:52:57.318Z,1.70
2022-09-05T01:53:47.286Z,1.90
2022-09-05T01:54:47.273Z,1.90
2022-09-05T01:56:04.775Z,1.80
2022-09-05T01:56:47.245Z,1.70
2022-09-05T01:57:47.253Z,1.90
2022-09-05T01:58:47.236Z,2.00
2022-09-05T01:59:47.210Z,2.00
2022-09-05T02:00:47.189Z,1.90
2022-09-05T02:01:47.183Z,2.00
2022-09-05T02:02:50.783Z,1.70
2022-09-05T02:03:47.156Z,1.90
2022-09-05T02:04:47.155Z,2.10
2022-09-05T02:05:48.279Z,2.20
2022-09-05T02:06:47.108Z,2.30
2022-09-05T02:07:47.097Z,2.10
2022-09-05T02:08:47.091Z,2.00
2022-09-05T02:09:47.065Z,1.90
2022-09-05T02:10:47.060Z,1.90
2022-09-05T02:11:47.036Z,2.10
2022-09-05T02:12:54.480Z,2.30
2022-09-05T02:13:47.021Z,1.70
2022-09-05T02:14:46.994Z,1.90
2022-09-05T02:15:59.534Z,1.90
2022-09-05T02:16:46.981Z,1.80
2022-09-05T02:17:50.567Z,2.00
2022-09-05T02:18:46.977Z,2.00
2022-09-05T02:19:46.943Z,2.00
2022-09-05T02:20:46.940Z,1.80
2022-09-05T02:21:56.289Z,1.90
2022-09-05T02:22:46.902Z,1.80
2022-09-05T02:23:47.375Z,2.10
2022-09-05T02:24:46.889Z,2.30
2022-09-05T02:26:01.362Z,2.00
2022-09-05T02:26:46.865Z,2.10
2022-09-05T02:28:04.591Z,2.20
2022-09-05T02:28:46.834Z,2.10
2022-09-05T02:29:46.807Z,2.10
2022-09-05T02:30:51.713Z,2.20
2022-09-05T02:31:46.847Z,2.30
2022-09-05T02:32:46.826Z,2.30
2022-09-05T02:33:46.811Z,2.10
2022-09-05T02:34:46.743Z,2.20
2022-09-05T02:35:46.736Z,2.10
2022-09-05T02:36:46.713Z,2.20
2022-09-05T02:38:37.979Z,2.50
2022-09-05T02:45:26.595Z,2.10
2022-09-05T02:45:32.678Z,2.30
2022-09-05T02:46:19.362Z,2.50
2022-09-05T02:47:19.198Z,2.10
2022-09-05T02:48:19.179Z,2.00
2022-09-05T02:50:12.881Z,2.00
2022-09-05T02:57:21.611Z,2.40
2022-09-05T02:58:07.817Z,2.30
2022-09-05T02:58:13.476Z,2.50
2022-09-05T02:59:09.478Z,2.40
2022-09-05T02:59:58.679Z,2.50
2022-09-05T03:00:58.672Z,2.60
2022-09-05T03:01:58.627Z,2.50
2022-09-05T03:02:58.636Z,2.30
2022-09-05T03:03:58.598Z,2.30
2022-09-05T03:05:00.973Z,2.60
2022-09-05T03:05:58.576Z,2.50
2022-09-05T03:06:58.558Z,2.50
2022-09-05T03:07:58.544Z,3.00
2022-09-05T03:09:09.773Z,2.50
2022-09-05T03:09:58.527Z,2.40
2022-09-05T03:10:58.514Z,2.30
2022-09-05T03:11:58.529Z,2.80
2022-09-05T03:12:58.476Z,2.50
2022-09-05T03:13:58.462Z,2.30
2022-09-05T03:14:58.448Z,2.40
2022-09-05T03:16:01.283Z,2.40
2022-09-05T03:16:58.469Z,2.70
2022-09-05T03:18:19.869Z,2.50
2022-09-05T03:18:58.435Z,2.50
2022-09-05T03:19:58.383Z,2.60
2022-09-05T03:21:09.205Z,2.70
2022-09-05T03:21:58.367Z,2.30
2022-09-05T03:22:58.358Z,2.50
2022-09-05T03:23:58.336Z,2.30
2022-09-05T03:24:58.342Z,2.60
2022-09-05T03:25:58.306Z,2.40
2022-09-05T03:26:58.288Z,2.50
2022-09-05T03:27:58.274Z,2.50
2022-09-05T03:28:58.279Z,2.70
2022-09-05T03:29:58.420Z,2.40
2022-09-05T03:30:58.349Z,2.40
2022-09-05T03:31:58.227Z,3.00
2022-09-05T03:32:58.209Z,2.60
2022-09-05T03:33:58.199Z,2.60
2022-09-05T03:34:58.211Z,2.50
2022-09-05T03:35:58.182Z,2.70
2022-09-05T03:36:58.168Z,2.50
2022-09-05T03:37:58.149Z,2.90
2022-09-05T03:38:58.139Z,2.60
2022-09-05T03:40:00.680Z,2.70
2022-09-05T03:40:58.124Z,2.70
2022-09-05T03:41:58.114Z,2.90
2022-09-05T03:42:58.092Z,2.50
2022-09-05T03:43:58.075Z,2.70
2022-09-05T03:44:58.051Z,2.60
2022-09-05T03:45:58.157Z,2.60
2022-09-05T03:46:58.053Z,2.90
2022-09-05T03:48:03.649Z,2.80
2022-09-05T03:48:58.100Z,2.90
2022-09-05T03:53:42.099Z,2.90
2022-09-05T03:57:33.817Z,2.80
2022-09-05T03:57:42.991Z,2.60
2022-09-05T03:58:36.677Z,3.30
2022-09-05T03:59:24.085Z,2.70
2022-09-05T04:00:24.072Z,2.70
2022-09-05T04:03:05.760Z,3.10
2022-09-05T04:08:34.107Z,2.60
2022-09-05T04:08:44.157Z,3.00
2022-09-05T04:09:49.321Z,3.90
2022-09-05T04:10:27.800Z,3.80
2022-09-05T04:11:27.670Z,3.20
2022-09-05T04:12:27.665Z,3.10
2022-09-05T04:13:27.647Z,3.10
2022-09-05T04:14:27.634Z,3.10
2022-09-05T04:15:27.617Z,2.70
2022-09-05T04:16:27.680Z,3.00
2022-09-05T04:17:27.587Z,3.10
2022-09-05T04:18:33.126Z,3.10
2022-09-05T04:19:27.579Z,2.80
2022-09-05T04:20:27.570Z,3.10
2022-09-05T04:21:27.609Z,2.80
2022-09-05T04:22:27.529Z,2.90
2022-09-05T04:23:27.515Z,2.80
2022-09-05T04:24:27.524Z,2.70
2022-09-05T04:25:27.487Z,3.00
2022-09-05T04:26:27.476Z,3.40
2022-09-05T04:27:27.942Z,3.60
2022-09-05T04:28:27.459Z,3.30
2022-09-05T04:29:27.445Z,3.50
2022-09-05T04:30:38.883Z,3.00
2022-09-05T04:31:27.454Z,3.10
2022-09-05T04:32:27.428Z,3.40
2022-09-05T04:33:36.280Z,3.10
2022-09-05T04:34:27.387Z,2.90
2022-09-05T04:35:27.364Z,2.80
2022-09-05T04:36:27.389Z,3.50
2022-09-05T04:37:27.374Z,3.60
2022-09-05T04:38:27.329Z,3.70
2022-09-05T04:39:27.379Z,4.10
2022-09-05T04:40:32.262Z,4.10
2022-09-05T04:41:39.376Z,4.90
2022-09-05T04:42:27.289Z,4.00
2022-09-05T04:43:27.288Z,4.30
2022-09-05T04:44:27.275Z,3.80
2022-09-05T04:45:27.231Z,4.40
2022-09-05T04:46:27.317Z,4.40
2022-09-05T04:47:27.246Z,4.00
2022-09-05T04:48:27.390Z,4.30
2022-09-05T04:49:27.171Z,3.80
2022-09-05T04:50:27.158Z,3.70
2022-09-05T04:51:27.162Z,3.50
2022-09-05T04:52:31.657Z,3.40
2022-09-05T04:53:27.114Z,3.30
2022-09-05T04:54:30.252Z,3.50
2022-09-05T04:55:27.101Z,3.60
2022-09-05T04:56:27.115Z,3.60
2022-09-05T04:57:27.062Z,3.50
2022-09-05T04:58:36.402Z,3.10
2022-09-05T05:02:58.345Z,3.30
2022-09-05T05:06:47.523Z,3.20
2022-09-05T05:07:22.736Z,3.00
2022-09-05T05:08:28.946Z,2.90
2022-09-05T05:09:22.542Z,3.30
2022-09-05T05:11:36.511Z,3.10
2022-09-05T05:18:08.807Z,3.10
2022-09-05T05:18:55.995Z,2.90
2022-09-05T05:19:16.824Z,2.90
2022-09-05T05:20:00.740Z,3.00
2022-09-05T05:20:50.196Z,2.90
2022-09-05T05:21:50.104Z,3.20
2022-09-05T05:22:50.791Z,3.00
2022-09-05T05:23:50.089Z,3.20
2022-09-05T05:24:50.083Z,3.10
2022-09-05T05:25:50.062Z,2.70
2022-09-05T05:26:56.674Z,2.70
2022-09-05T05:27:50.037Z,2.70
2022-09-05T05:28:50.032Z,3.30
2022-09-05T05:29:50.013Z,3.40
2022-09-05T05:30:50.291Z,3.30
2022-09-05T05:31:50.135Z,3.50
2022-09-05T05:32:49.969Z,3.90
2022-09-05T05:33:49.952Z,3.80
2022-09-05T05:34:49.942Z,3.40
2022-09-05T05:35:49.940Z,3.00
2022-09-05T05:36:49.911Z,3.50
2022-09-05T05:37:49.932Z,3.10
2022-09-05T05:38:49.894Z,3.50
2022-09-05T05:39:49.923Z,3.50
2022-09-05T05:40:50.880Z,3.20
2022-09-05T05:41:49.872Z,3.30
2022-09-05T05:42:49.854Z,3.90
2022-09-05T05:43:49.817Z,3.50
2022-09-05T05:44:49.817Z,3.60
2022-09-05T05:45:49.833Z,4.00
2022-09-05T05:46:49.774Z,4.00
2022-09-05T05:47:49.773Z,3.60
2022-09-05T05:48:57.230Z,3.60
2022-09-05T05:49:49.751Z,3.40
2022-09-05T05:50:49.729Z,3.30
2022-09-05T05:52:02.689Z,3.40
2022-09-05T05:52:49.712Z,3.60
2022-09-05T05:53:52.400Z,3.50
2022-09-05T05:54:49.681Z,3.80
2022-09-05T05:55:52.968Z,3.80
2022-09-05T05:56:49.639Z,3.50
2022-09-05T05:57:49.636Z,3.70
2022-09-05T05:58:49.617Z,3.60
2022-09-05T05:59:56.582Z,3.70
2022-09-05T06:00:51.366Z,3.60
2022-09-05T06:01:49.767Z,2.90
2022-09-05T06:03:09.945Z,3.20
2022-09-05T06:03:49.658Z,3.40
2022-09-05T06:04:49.569Z,3.30
2022-09-05T06:05:49.566Z,3.90
2022-09-05T06:06:49.511Z,3.40
2022-09-05T06:09:14.127Z,3.10
2022-09-05T06:14:57.019Z,2.50
2022-09-05T06:15:16.512Z,2.80
2022-09-05T06:15:26.904Z,3.10
2022-09-05T06:16:22.802Z,2.60
2022-09-05T06:17:27.954Z,2.90
2022-09-05T06:18:22.728Z,2.90
2022-09-05T06:19:22.707Z,3.20
2022-09-05T06:22:04.096Z,2.80
2022-09-05T06:22:19.325Z,2.70
2022-09-05T06:22:26.568Z,2.40
2022-09-05T06:23:39.882Z,2.90
2022-09-05T06:24:26.546Z,2.40
2022-09-05T06:25:26.523Z,2.60
2022-09-05T06:26:26.522Z,2.40
2022-09-05T06:27:26.506Z,2.60
2022-09-05T06:28:26.492Z,2.20
2022-09-05T06:29:34.260Z,2.70
2022-09-05T06:30:26.591Z,2.20
2022-09-05T06:31:30.697Z,2.50
2022-09-05T06:32:26.465Z,2.20
2022-09-05T06:33:26.583Z,2.10
2022-09-05T06:34:35.386Z,2.00
2022-09-05T06:35:26.410Z,2.50
2022-09-05T06:36:26.397Z,2.30
2022-09-05T06:37:26.400Z,2.30
2022-09-05T06:38:26.358Z,2.50
2022-09-05T06:39:26.383Z,2.00
2022-09-05T06:40:30.256Z,2.10
2022-09-05T06:41:26.333Z,2.40
2022-09-05T06:42:42.592Z,2.50
2022-09-05T06:43:26.532Z,2.20
2022-09-05T06:44:26.406Z,2.30
2022-09-05T06:45:27.897Z,2.00
2022-09-05T06:47:22.512Z,2.20
2022-09-05T06:47:33.570Z,2.10
2022-09-05T06:48:44.307Z,2.00
2022-09-05T06:49:32.477Z,1.90
2022-09-05T06:50:27.073Z,1.90
2022-09-05T06:51:26.183Z,1.90
2022-09-05T06:52:28.349Z,2.30
2022-09-05T06:53:26.162Z,1.90
2022-09-05T06:54:26.182Z,1.90
2022-09-05T06:55:26.142Z,2.10
2022-09-05T06:56:26.568Z,2.10
2022-09-05T06:57:26.108Z,1.90
2022-09-05T06:58:26.100Z,2.00
2022-09-05T06:59:26.078Z,2.00
2022-09-05T07:00:26.074Z,2.20
2022-09-05T07:01:26.171Z,2.00
2022-09-05T07:02:58.368Z,1.90
2022-09-05T07:03:26.663Z,2.00
2022-09-05T07:05:00.859Z,1.80
2022-09-05T07:05:40.029Z,1.90
2022-09-05T07:06:50.779Z,2.40
2022-09-05T07:07:27.664Z,2.20
2022-09-05T07:08:35.644Z,2.30
2022-09-05T07:09:28.870Z,2.00
2022-09-05T07:10:38.557Z,1.90
2022-09-05T07:11:25.933Z,2.10
2022-09-05T07:12:25.923Z,2.20
2022-09-05T07:13:26.084Z,2.00
2022-09-05T07:14:25.892Z,2.10
2022-09-05T07:15:25.884Z,2.00
2022-09-05T07:16:38.046Z,2.50
2022-09-05T07:17:25.851Z,2.00
2022-09-05T07:18:25.844Z,1.80
2022-09-05T07:19:25.820Z,2.20
2022-09-05T07:20:25.809Z,2.00
2022-09-05T07:21:26.545Z,1.90
2022-09-05T07:22:46.259Z,1.90
2022-09-05T07:24:06.449Z,2.10
2022-09-05T07:24:53.331Z,2.00
2022-09-05T07:25:26.452Z,1.80
2022-09-05T07:26:52.491Z,2.00
2022-09-05T07:27:25.718Z,2.00
2022-09-05T07:28:30.294Z,1.90
2022-09-05T07:29:27.713Z,2.40
2022-09-05T07:30:25.679Z,1.90
2022-09-05T07:31:27.330Z,2.00
2022-09-05T07:32:25.709Z,2.20
2022-09-05T07:33:25.806Z,1.80
2022-09-05T07:34:25.634Z,1.70
2022-09-05T07:35:25.619Z,1.90
2022-09-05T07:36:25.603Z,1.90
2022-09-05T07:37:25.585Z,1.60
2022-09-05T07:38:32.587Z,1.60
2022-09-05T07:39:29.220Z,1.90
2022-09-05T07:40:27.009Z,1.80
2022-09-05T07:41:25.540Z,1.80
2022-09-05T07:42:25.524Z,1.80
2022-09-05T07:43:25.503Z,2.00
2022-09-05T07:44:25.495Z,1.90
2022-09-05T07:45:25.523Z,2.00
2022-09-05T07:46:25.465Z,1.90
2022-09-05T07:47:25.448Z,2.00
2022-09-05T07:48:34.170Z,1.90
2022-09-05T07:49:25.427Z,1.70
2022-09-05T07:56:46.093Z,1.90
2022-09-05T07:57:32.222Z,1.80
2022-09-05T07:57:50.858Z,1.70
2022-09-05T07:58:25.902Z,1.60
2022-09-05T07:59:25.884Z,2.00
2022-09-05T08:00:29.567Z,1.50
2022-09-05T08:01:25.916Z,2.00
2022-09-05T08:02:25.847Z,2.00
2022-09-05T08:03:26.101Z,1.50
2022-09-05T08:04:25.813Z,2.00
2022-09-05T08:05:34.616Z,1.70
2022-09-05T08:07:11.942Z,2.10
2022-09-05T08:07:53.066Z,1.70
2022-09-05T08:08:25.764Z,1.90
2022-09-05T08:10:06.456Z,2.10
2022-09-05T08:10:35.626Z,1.90
2022-09-05T08:11:27.813Z,2.20
2022-09-05T08:12:28.000Z,1.80
2022-09-05T08:13:27.208Z,2.10
2022-09-05T08:14:44.033Z,2.10
2022-09-05T08:15:25.674Z,1.80
2022-09-05T08:16:25.732Z,1.60
2022-09-05T08:17:29.968Z,1.80
2022-09-05T08:18:25.634Z,1.80
2022-09-05T08:19:25.615Z,1.70
2022-09-05T08:20:25.599Z,2.10
2022-09-05T08:21:27.358Z,1.80
2022-09-05T08:22:25.573Z,2.00
2022-09-05T08:23:25.832Z,1.90
2022-09-05T08:24:25.554Z,1.70
2022-09-05T08:25:25.538Z,2.10
2022-09-05T08:26:25.516Z,1.90
2022-09-05T08:27:25.507Z,1.80
2022-09-05T08:28:25.697Z,1.60
2022-09-05T08:29:25.491Z,1.70
2022-09-05T08:30:27.854Z,1.70
2022-09-05T08:31:25.507Z,1.80
2022-09-05T08:32:25.437Z,1.90
2022-09-05T08:33:25.426Z,1.70
2022-09-05T08:34:34.071Z,1.70
2022-09-05T08:35:25.412Z,1.80
2022-09-05T08:36:25.381Z,2.10
2022-09-05T08:37:25.370Z,1.90
2022-09-05T08:38:25.418Z,1.80
2022-09-05T08:39:25.376Z,2.00
2022-09-05T08:40:25.369Z,1.80
2022-09-05T08:41:30.067Z,1.70
2022-09-05T08:42:25.326Z,1.80
2022-09-05T08:46:37.151Z,2.00
2022-09-05T08:46:50.661Z,1.70
2022-09-05T08:46:56.721Z,1.60
2022-09-05T08:47:56.248Z,1.90
2022-09-05T08:48:56.141Z,1.80
2022-09-05T08:49:56.117Z,1.60
2022-09-05T08:50:56.108Z,1.80
2022-09-05T08:51:56.155Z,1.80
2022-09-05T08:52:56.095Z,1.70
2022-09-05T08:53:56.066Z,1.60
2022-09-05T08:55:05.755Z,1.70
2022-09-05T08:55:56.050Z,1.60
2022-09-05T08:56:56.033Z,1.50
2022-09-05T08:57:56.037Z,2.00
2022-09-05T08:59:28.448Z,1.90
2022-09-05T09:00:19.105Z,1.50
2022-09-05T09:01:00.152Z,1.40
2022-09-05T09:02:45.396Z,1.40
2022-09-05T09:02:56.121Z,1.90
2022-09-05T09:03:55.976Z,1.70
2022-09-05T09:05:01.250Z,1.50
2022-09-05T09:06:12.312Z,1.60
2022-09-05T09:07:43.705Z,1.50
2022-09-05T09:07:55.888Z,1.50
2022-09-05T09:08:55.885Z,1.20
2022-09-05T09:09:55.854Z,1.40
2022-09-05T09:10:55.843Z,1.30
2022-09-05T09:11:55.827Z,1.40
2022-09-05T09:12:55.822Z,1.30
2022-09-05T09:13:55.811Z,1.50
2022-09-05T09:14:55.789Z,1.80
2022-09-05T09:15:55.816Z,2.00
2022-09-05T09:16:55.764Z,1.60
2022-09-05T09:17:55.758Z,1.30
2022-09-05T09:18:55.739Z,1.50
2022-09-05T09:19:55.722Z,1.40
2022-09-05T09:20:55.713Z,1.60
2022-09-05T09:21:56.571Z,2.00
2022-09-05T09:22:55.696Z,1.50
2022-09-05T09:23:55.678Z,1.60
2022-09-05T09:25:14.481Z,1.50
2022-09-05T09:25:55.649Z,1.70
2022-09-05T09:26:55.634Z,1.30
2022-09-05T09:28:47.200Z,1.80
2022-09-05T09:28:55.620Z,1.40
2022-09-05T09:29:55.609Z,1.60
2022-09-05T09:30:57.644Z,1.50
2022-09-05T09:31:55.649Z,1.80
2022-09-05T09:32:59.319Z,1.20
2022-09-05T09:33:55.539Z,1.30
2022-09-05T09:34:56.363Z,1.50
2022-09-05T09:35:55.511Z,1.50
2022-09-05T09:36:55.502Z,1.60
2022-09-05T09:37:59.424Z,1.80
2022-09-05T09:38:55.474Z,1.40
2022-09-05T09:39:55.562Z,1.50
2022-09-05T09:41:02.309Z,1.40
2022-09-05T09:41:55.441Z,1.70
2022-09-05T09:42:55.424Z,1.60
2022-09-05T09:43:55.408Z,1.30
2022-09-05T09:44:55.403Z,1.80
2022-09-05T09:45:55.402Z,1.50
2022-09-05T09:46:55.496Z,1.40
2022-09-05T09:47:55.362Z,1.40
2022-09-05T09:48:55.356Z,1.40
2022-09-05T09:49:55.328Z,1.20
2022-09-05T09:50:59.055Z,1.40
2022-09-05T09:51:55.313Z,1.70
2022-09-05T09:52:55.291Z,1.40
2022-09-05T09:53:55.283Z,1.50
2022-09-05T09:54:55.276Z,1.70
2022-09-05T09:55:55.249Z,1.50
2022-09-05T09:56:55.242Z,1.50
2022-09-05T09:57:55.572Z,1.60
2022-09-05T09:58:55.214Z,1.60
2022-09-05T09:59:55.438Z,1.90
2022-09-05T10:00:55.197Z,1.50
2022-09-05T10:01:55.189Z,1.40
2022-09-05T10:06:45.336Z,1.10
2022-09-05T10:11:02.492Z,1.20
2022-09-05T10:11:56.592Z,1.50
2022-09-05T10:12:54.804Z,1.40
2022-09-05T10:13:52.021Z,1.30
2022-09-05T10:14:52.009Z,1.70
2022-09-05T10:15:52.037Z,1.40
2022-09-05T10:16:51.974Z,1.40
2022-09-05T10:17:51.966Z,65.50
2022-09-05T10:18:51.949Z,79.20
2022-09-05T10:20:09.905Z,64.40
2022-09-05T10:21:15.425Z,9.70
2022-09-05T10:22:34.632Z,3.00
2022-09-05T10:22:51.898Z,2.00
2022-09-05T10:23:51.885Z,1.90
2022-09-05T10:24:51.868Z,2.10
2022-09-05T10:25:51.864Z,2.50
2022-09-05T10:26:51.842Z,2.50
2022-09-05T10:27:51.843Z,2.40
2022-09-05T10:28:51.817Z,1.90
2022-09-05T10:29:52.833Z,1.70
2022-09-05T10:32:26.024Z,1.50
2022-09-05T10:35:24.647Z,1.90
2022-09-05T10:35:30.073Z,1.80
2022-09-05T10:36:27.293Z,1.50
2022-09-05T10:37:27.232Z,1.90
2022-09-05T10:38:27.226Z,1.60
2022-09-05T10:39:27.614Z,1.70
2022-09-05T10:40:27.193Z,1.70
2022-09-05T10:41:27.186Z,1.80
2022-09-05T10:42:27.168Z,1.50
2022-09-05T10:43:27.159Z,1.90
2022-09-05T10:44:27.142Z,2.10
2022-09-05T10:45:30.237Z,2.30
2022-09-05T10:46:50.291Z,2.40
2022-09-05T10:47:27.202Z,2.40
2022-09-05T10:48:27.084Z,1.90
2022-09-05T10:49:30.114Z,1.60
2022-09-05T10:50:27.064Z,1.60
2022-09-05T10:51:28.311Z,1.40
2022-09-05T10:52:27.041Z,1.60
2022-09-05T10:53:28.280Z,1.40
2022-09-05T10:54:27.018Z,1.60
2022-09-05T10:55:26.995Z,1.50
2022-09-05T10:56:28.710Z,1.60
2022-09-05T10:57:26.970Z,1.70
2022-09-05T10:59:37.427Z,1.50
2022-09-05T11:02:38.418Z,1.40
2022-09-05T11:02:48.181Z,1.50
2022-09-05T11:03:40.248Z,2.40
2022-09-05T11:04:46.863Z,1.40
2022-09-05T11:05:40.248Z,1.50
2022-09-05T11:06:40.162Z,1.50
2022-09-05T11:07:40.150Z,1.50
2022-09-05T11:08:40.143Z,2.10
2022-09-05T11:09:40.134Z,2.00
2022-09-05T11:10:40.108Z,1.80
2022-09-05T11:11:40.092Z,1.50
2022-09-05T11:12:40.091Z,1.30
2022-09-05T11:13:40.067Z,1.40
2022-09-05T11:14:40.066Z,1.30
2022-09-05T11:15:47.875Z,1.40
2022-09-05T11:16:40.134Z,1.60
2022-09-05T11:17:40.019Z,1.40
2022-09-05T11:18:55.573Z,1.40
2022-09-05T11:19:40.035Z,1.40
2022-09-05T11:20:39.991Z,1.40
2022-09-05T11:21:39.974Z,1.30
2022-09-05T11:22:39.962Z,1.60
2022-09-05T11:23:39.939Z,1.30
2022-09-05T11:24:39.935Z,1.40
2022-09-05T11:25:41.157Z,1.70
2022-09-05T11:26:39.908Z,1.30
2022-09-05T11:27:39.895Z,1.30
2022-09-05T11:29:00.498Z,1.50
2022-09-05T11:29:39.879Z,1.30
2022-09-05T11:30:39.859Z,1.40
2022-09-05T11:31:54.824Z,1.50
2022-09-05T11:36:57.900Z,1.30
2022-09-05T11:40:28.994Z,1.40
2022-09-05T11:40:59.174Z,1.20
2022-09-05T11:41:27.284Z,1.50
2022-09-05T11:42:26.374Z,1.50
2022-09-05T11:43:26.368Z,1.50
2022-09-05T11:44:27.324Z,1.40
2022-09-05T11:45:26.333Z,1.40
2022-09-05T11:46:26.430Z,1.20
2022-09-05T11:47:28.079Z,1.40
2022-09-05T11:48:26.471Z,1.60
2022-09-05T11:49:26.290Z,1.10
2022-09-05T11:50:26.273Z,1.20
2022-09-05T11:51:33.409Z,1.10
2022-09-05T11:52:26.252Z,1.30
2022-09-05T11:53:26.246Z,1.30
2022-09-05T11:54:26.225Z,1.30
2022-09-05T11:55:26.208Z,1.30
2022-09-05T11:56:28.861Z,1.50
2022-09-05T11:57:32.109Z,1.20
2022-09-05T11:58:45.333Z,1.30
2022-09-05T11:59:33.844Z,1.40
2022-09-05T12:00:32.834Z,1.60
2022-09-05T12:01:41.679Z,1.30
2022-09-05T12:02:26.163Z,1.20
2022-09-05T12:03:57.446Z,1.10
2022-09-05T12:04:26.112Z,1.30
2022-09-05T12:05:51.166Z,1.30
2022-09-05T12:42:14.907Z,1.40
2022-09-05T12:42:30.776Z,1.10
2022-09-05T12:44:40.226Z,1.20
2022-09-05T12:44:50.166Z,1.30
2022-09-05T12:45:03.300Z,1.30
2022-09-05T12:46:03.496Z,1.40
2022-09-05T12:47:18.624Z,1.70
2022-09-05T12:48:03.070Z,1.70
2022-09-05T12:49:07.278Z,1.70
2022-09-05T12:50:14.534Z,1.60
2022-09-05T12:51:03.025Z,1.60
2022-09-05T12:52:03.003Z,1.50
2022-09-05T12:53:03.001Z,1.30
2022-09-05T12:54:02.989Z,1.00
2022-09-05T12:55:02.973Z,1.20
2022-09-05T12:57:34.644Z,1.30
2022-09-05T13:03:28.269Z,1.40
2022-09-05T13:03:34.363Z,1.30
2022-09-05T13:04:18.779Z,1.20
2022-09-05T13:05:14.763Z,1.00
2022-09-05T13:06:25.088Z,1.00
2022-09-05T13:07:15.260Z,1.00
2022-09-05T13:08:14.565Z,1.00
2022-09-05T13:09:14.550Z,1.00
2022-09-05T13:13:33.268Z,0.70
2022-09-05T13:15:21.748Z,1.10
2022-09-05T13:15:28.230Z,1.00
2022-09-05T13:16:22.922Z,1.10
2022-09-05T13:17:14.334Z,1.00
2022-09-05T13:18:14.304Z,1.20
2022-09-05T13:19:14.297Z,1.30
2022-09-05T13:20:14.270Z,1.00
2022-09-05T13:21:14.256Z,1.30
2022-09-05T13:22:14.294Z,1.10
2022-09-05T13:23:14.242Z,1.10
2022-09-05T13:24:14.214Z,1.20
2022-09-05T13:25:14.223Z,1.20
2022-09-05T13:26:14.200Z,1.20
2022-09-05T13:27:14.182Z,1.10
2022-09-05T13:28:14.187Z,1.20
2022-09-05T13:29:14.155Z,1.00
2022-09-05T13:36:40.756Z,1.40
2022-09-05T13:38:35.961Z,1.20
2022-09-05T13:38:48.906Z,1.00
2022-09-05T13:39:24.012Z,1.00
2022-09-05T13:40:24.044Z,1.30
2022-09-05T13:41:26.980Z,1.20
2022-09-05T13:42:23.799Z,1.10
2022-09-05T13:43:23.790Z,1.60
2022-09-05T13:44:27.646Z,1.20
2022-09-05T13:45:23.758Z,1.30
2022-09-05T13:46:23.856Z,1.20
2022-09-05T13:47:29.441Z,1.30
2022-09-05T13:48:23.961Z,1.30
2022-09-05T13:49:26.906Z,1.30
2022-09-05T13:50:23.687Z,1.00
2022-09-05T13:51:23.675Z,1.10
2022-09-05T13:52:23.660Z,1.10
2022-09-05T13:53:23.652Z,1.30
2022-09-05T13:54:23.647Z,1.20
2022-09-05T13:55:23.629Z,1.20
2022-09-05T13:56:23.616Z,1.10
2022-09-05T13:57:32.322Z,1.00
2022-09-05T13:58:23.609Z,1.10
2022-09-05T13:59:23.579Z,1.30
2022-09-05T14:00:27.750Z,1.40
2022-09-05T14:01:23.590Z,1.30
2022-09-05T14:02:25.131Z,1.10
2022-09-05T14:03:38.183Z,1.30
2022-09-05T14:05:23.562Z,1.10
2022-09-05T14:06:47.882Z,1.20
2022-09-05T14:08:23.463Z,1.40
2022-09-05T14:09:39.543Z,0.90
2022-09-05T14:10:23.431Z,1.20
2022-09-05T14:11:23.426Z,1.20
2022-09-05T14:12:23.403Z,1.40
2022-09-05T14:13:23.428Z,1.20
2022-09-05T14:15:25.184Z,1.20
2022-09-05T14:16:23.398Z,1.20
2022-09-05T14:18:23.404Z,1.20
2022-09-05T14:19:23.326Z,1.30
2022-09-05T14:20:23.303Z,1.40
2022-09-05T14:21:23.292Z,1.10
2022-09-05T14:22:23.276Z,1.40
2022-09-05T14:23:24.284Z,1.40
2022-09-05T14:24:27.362Z,1.10
2022-09-05T14:25:23.245Z,1.10
2022-09-05T14:26:23.228Z,1.20
2022-09-05T14:27:30.390Z,1.10
2022-09-05T14:28:23.206Z,1.50
2022-09-05T14:29:23.726Z,1.20
2022-09-05T14:33:04.377Z,1.30
2022-09-05T14:38:09.768Z,1.10
2022-09-05T14:38:18.510Z,1.20
2022-09-05T14:39:01.906Z,1.20
2022-09-05T14:40:02.160Z,1.20
2022-09-05T14:41:02.747Z,1.20
2022-09-05T14:42:07.593Z,1.70
2022-09-05T14:43:01.820Z,1.20
2022-09-05T14:44:01.816Z,1.20
2022-09-05T14:45:01.832Z,0.90
2022-09-05T14:46:02.587Z,0.90
2022-09-05T14:47:02.578Z,1.10
2022-09-05T14:48:02.527Z,1.40
2022-09-05T14:49:01.782Z,1.10
2022-09-05T14:50:03.989Z,1.10
2022-09-05T14:51:01.671Z,1.20
2022-09-05T14:52:01.677Z,1.30
2022-09-05T14:54:02.259Z,1.30
2022-09-05T14:56:46.417Z,1.20
2022-09-05T15:02:54.385Z,1.10
2022-09-05T15:03:05.906Z,1.20
2022-09-05T15:03:12.745Z,1.30
2022-09-05T15:05:12.196Z,1.00
2022-09-05T15:06:11.837Z,1.20
2022-09-05T15:07:11.784Z,1.30
2022-09-05T15:08:24.037Z,1.20
2022-09-05T15:12:15.296Z,1.50
2022-09-05T15:12:38.573Z,1.10
2022-09-05T15:12:52.102Z,1.40
2022-09-05T15:13:40.455Z,1.40
2022-09-05T15:14:40.424Z,1.20
2022-09-05T15:15:40.454Z,1.20
2022-09-05T15:16:40.499Z,1.30
2022-09-05T15:17:40.394Z,1.40
2022-09-05T15:18:40.369Z,1.40
2022-09-05T15:19:40.362Z,1.30
2022-09-05T15:20:40.366Z,1.30
2022-09-05T15:21:40.339Z,1.40
2022-09-05T15:22:40.310Z,1.30
2022-09-05T15:23:40.296Z,1.20
2022-09-05T15:24:40.283Z,1.20
2022-09-05T15:25:40.290Z,1.50
2022-09-05T15:26:40.295Z,1.20
2022-09-05T15:27:40.243Z,1.40
2022-09-05T15:28:40.233Z,1.40
2022-09-05T15:29:40.238Z,1.00
2022-09-05T15:30:40.252Z,1.20
2022-09-05T15:31:40.213Z,1.20
2022-09-05T15:32:40.182Z,1.50